Search for airport 
image banner adimage banner adimage banner ad
image banner ad

17PS - Mountain Crest

Located in Tidioute, United States

ICAO - 17PS, IATA -

Data provided by Airmate  

General information

Coordinates: N41°34'45" W79°26'30"
Elevation is 1641 feet MSL.
 
View others Airports in Pennsylvania

Operational data

Special qualification required
Current time UTC:
Current local time:
Weather at : KFKL - Venango Rgnl ( 41 km )
METAR: KFKL 152256Z AUTO 32007G15KT 270V010 10SM CLR 19/07 A2996 RMK AO2 SLP143 T01890072
TAF: KFKL 151720Z 1518/1618 33010G20KT P6SM BKN035 FM160000 33008KT P6SM SCT080 FM160300 32005KT P6SM SKC
View NOTAMs / SUP AIP / TFR affecting this airport [VIEW]
Communications frequencies: [VIEW]

Runways:

RWY identifierQFULength (ft)Width (ft)SurfaceLDA (ft)
012170100GRASS
192170100GRASS

Airport contact information

Address: Tidioute United States

Satellite view of 17PS